Mount Pleasant, MI (48804)

4:03 AM EDT on August 04, 2015 (GMT -0400)
Chippewa Township | | Change Station
CLOSE
Current Station
Personal Weather Station
Location: Mt Pleasant, MI
Elevation: 755 ft
Nearby Weather Stations

Elev 755 ft 43.63 °N, 84.65 °W | Updated 3 minutes ago

Clear
Clear
57.0 °F
Feels Like 57.0 °F
N
0.0
Wind Variable Wind from West
Gusts 0.0 mph

Today
High -- | Low -- °F
--% Chance of Precip.
Yesterday
High -- | Low -- °F
Precip. -- in
6:30 AM 8:58 PM
Waning Gibbous, 80% visible
Pressure 29.86 in
Visibility 10.0 miles
Clouds Clear
Dew Point 22 °F
Humidity 26%
Rainfall -999.00 in
Snow Depth Not available.
UV 0 out of 12
Pollen 5.60 out of 12
Air Quality Not available.
Flu Activity Not available.
METAR KMOP 040755Z AUTO 25003KT 10SM CLR 15/13 A2986 RMK AO2 T01530125

More Conditions Fewer Conditions

Pressure 29.86 in
Visibility 10.0 miles
Clouds Clear
Dew Point 22 °F
Humidity 26%
Rainfall -999.00 in
Snow Depth Not available.
UV 0 out of 12
Pollen 5.60 out of 12
Air Quality Not available.
Flu Activity Not available.
METAR KMOP 040755Z AUTO 25003KT 10SM CLR 15/13 A2986 RMK AO2 T01530125

More Conditions Fewer Conditions

10-Day Weather Forecast

×

Almanac

Astronomy

Aug. 04, 2015 Rise Set
Actual Time
Civil Twilight
Nautical Twilight
Astronomical Twilight
Moon
Length of Visible Light
Length of Day
Tomorrow will be .
, % of the Moon is Illuminated

Today's Extremes

State Highs State Lows

Community

WunderPhotos

Upload Photos

1,843,877 photos uploaded!

WunderBlogs® & News

Nearby

Air Quality

  Air Quality AQ Index Pollutant
Not available.

Snow Depth

Station Depth Elevation

Earthquake Activity

City Distance Mag. Time & Date
Minimum magnitude displayed is 2.5.

Coastal Water Temperatures

Place Temperature

Stations

Nearby Weather Stations

Station Location Temp. Windchill Dew Point Humidity Wind Precip. Elev Updated Type